Terminal Aerodrome Forecast
Issued by NWS

Home | Current Version | Previous Version | Text Only | Print | Product List | Glossary On
Versions: 1 2 3 4 5 6 7 8 9 10 11 12 13 14 15 16 17 18 19 20 21 22
402
FTUS43 KDVN 251128
TAFBRL
TAF
KBRL 251128Z 2512/2612 16007KT P6SM -SHRA VCTS BKN040CB
     FM251400 17009KT P6SM BKN050
     FM252200 18012KT P6SM VCTS BKN040CB
     FM260100 18007KT 6SM BR BKN040=

USA.gov is the U.S. government's official web portal to all federal, state and local government web resources and services.